Time;durP1;ratioP1;P1;durP2;ratioP2;P2;SDS_P1;SDS_P2;PMS_P1;PMS_P2;Temp;Humidity;BMP_temperature;BMP_pressure;BME280_temperature;BME280_humidity;BME280_pressure;Samples;Min_cycle;Max_cycle;Signal;HPM_P1;HPM_P2
2022/09/08 00:01:14;;;;;;;13.78;6.90;;;;;;;15.99;89.81;99290.61;1763130;81;21026;-80
2022/09/08 00:03:41;;;;;;;9.73;6.42;;;;;;;15.98;90.04;99292.86;1790693;80;21016;-79
2022/09/08 00:06:12;;;;;;;12.78;7.72;;;;;;;15.95;88.94;99299.53;1790840;80;20996;-79
2022/09/08 00:08:40;;;;;;;12.75;5.87;;;;;;;15.85;88.46;99299.55;1769571;80;21000;-80
2022/09/08 00:11:09;;;;;;;11.03;6.20;;;;;;;15.73;89.35;99297.46;1759085;80;20989;-80
2022/09/08 00:13:40;;;;;;;11.28;6.17;;;;;;;15.66;89.90;99298.16;1771608;80;21518;-79
2022/09/08 00:16:08;;;;;;;8.70;6.00;;;;;;;15.58;89.68;99293.25;1756349;81;21066;-81
2022/09/08 00:18:36;;;;;;;10.43;6.05;;;;;;;15.47;89.09;99291.52;1766456;81;20998;-80
2022/09/08 00:21:03;;;;;;;9.38;5.20;;;;;;;15.43;90.59;99292.58;1772988;80;21054;-83
2022/09/08 00:23:30;;;;;;;8.45;5.53;;;;;;;15.37;88.88;99290.21;1775727;80;21041;-82
2022/09/08 00:25:56;;;;;;;8.25;5.62;;;;;;;15.23;89.22;99291.63;1782294;80;20983;-80
2022/09/08 00:28:23;;;;;;;13.28;6.60;;;;;;;15.16;90.57;99289.31;1781545;80;21096;-81
2022/09/08 00:30:50;;;;;;;9.60;6.22;;;;;;;15.15;90.87;99296.33;1782181;80;20974;-81
2022/09/08 00:33:17;;;;;;;12.43;6.10;;;;;;;15.15;91.27;99298.94;1772171;80;20995;-80
2022/09/08 00:35:44;;;;;;;10.50;5.90;;;;;;;15.12;90.67;99291.23;1783867;80;20987;-80
2022/09/08 00:38:12;;;;;;;10.13;6.33;;;;;;;15.08;91.04;99287.00;1771584;81;21510;-80
2022/09/08 00:40:45;;;;;;;11.57;6.75;;;;;;;15.12;91.89;99287.30;1772004;80;21542;-79
2022/09/08 00:43:32;;;;;;;10.88;6.37;;;;;;;15.17;92.03;99287.95;1758648;81;21018;-80
2022/09/08 00:46:14;;;;;;;10.93;6.08;;;;;;;15.23;92.82;99289.47;1769337;80;20982;-80
2022/09/08 00:49:12;;;;;;;11.93;7.28;;;;;;;15.24;92.08;99293.77;1772178;81;21665;-80
2022/09/08 00:51:43;;;;;;;12.23;6.55;;;;;;;15.27;92.50;99295.81;1741076;81;21078;-80
2022/09/08 00:54:12;;;;;;;14.50;6.47;;;;;;;15.27;91.62;99287.96;1765071;80;21311;-79
2022/09/08 00:56:41;;;;;;;11.53;6.50;;;;;;;15.23;91.61;99286.38;1771922;80;21022;-80
2022/09/08 00:59:09;;;;;;;11.70;6.65;;;;;;;15.19;92.32;99287.43;1771804;80;20983;-81
2022/09/08 01:01:36;;;;;;;14.58;7.20;;;;;;;15.15;92.23;99287.16;1772056;80;21006;-80
2022/09/08 01:04:05;;;;;;;16.02;7.62;;;;;;;15.14;92.35;99278.92;1782485;80;21556;-80
2022/09/08 01:12:54;;;;;;;17.17;7.45;;;;;;;15.06;91.70;99282.28;1771770;80;21011;-79
2022/09/08 01:15:26;;;;;;;17.75;7.90;;;;;;;15.00;91.05;99283.84;1780337;80;20942;-79
2022/09/08 01:17:54;;;;;;;19.52;7.10;;;;;;;14.89;91.32;99281.20;1760190;81;21029;-80
2022/09/08 01:20:31;;;;;;;21.90;7.65;;;;;;;14.86;91.48;99280.03;1741441;80;21499;-80
2022/09/08 01:23:26;;;;;;;17.80;7.10;;;;;;;14.83;92.29;99284.06;1768456;80;21002;-79
2022/09/08 01:26:19;;;;;;;16.90;7.12;;;;;;;14.87;92.49;99281.72;1770937;81;21052;-79
2022/09/08 01:29:01;;;;;;;14.10;6.00;;;;;;;14.85;93.13;99284.02;1773885;80;21022;-80
2022/09/08 01:31:36;;;;;;;10.70;5.87;;;;;;;14.85;92.92;99284.02;1775491;81;21298;-80
2022/09/08 01:34:02;;;;;;;13.70;5.78;;;;;;;14.82;92.42;99287.61;1756921;80;21053;-80
2022/09/08 01:36:29;;;;;;;10.95;6.35;;;;;;;14.81;92.11;99280.66;1775428;80;21050;-80
2022/09/08 01:38:55;;;;;;;12.40;6.10;;;;;;;14.82;92.27;99278.89;1790719;80;21034;-79
2022/09/08 01:41:22;;;;;;;13.78;6.50;;;;;;;14.83;92.73;99267.05;1784151;80;20983;-79
2022/09/08 01:43:49;;;;;;;13.03;6.55;;;;;;;14.82;91.67;99271.03;1782222;79;20992;-80
2022/09/08 01:46:15;;;;;;;11.45;6.72;;;;;;;14.79;92.04;99269.40;1775446;81;20978;-80
2022/09/08 01:48:42;;;;;;;11.97;6.50;;;;;;;14.80;92.77;99268.50;1775571;80;21015;-80
2022/09/08 01:51:09;;;;;;;16.48;6.75;;;;;;;14.82;92.51;99266.67;1768437;79;21038;-80
2022/09/08 01:53:36;;;;;;;12.28;6.97;;;;;;;14.86;92.81;99263.45;1760143;80;21587;-79
2022/09/08 01:56:07;;;;;;;12.13;6.25;;;;;;;14.90;93.31;99273.77;1774982;80;21064;-80
2022/09/08 01:58:34;;;;;;;13.38;5.72;;;;;;;14.94;93.59;99264.02;1775350;80;20982;-83
2022/09/08 02:01:01;;;;;;;8.90;5.85;;;;;;;14.99;93.70;99261.21;1777104;80;21573;-79
2022/09/08 02:03:28;;;;;;;7.00;5.08;;;;;;;15.04;93.36;99268.41;1788419;79;21589;-82
2022/09/08 02:06:01;;;;;;;8.60;5.42;;;;;;;15.04;92.79;99258.81;1775577;80;21093;-82
2022/09/08 02:08:29;;;;;;;8.85;5.20;;;;;;;15.06;93.19;99262.64;1766202;81;21053;-80
2022/09/08 02:10:59;;;;;;;7.58;5.03;;;;;;;15.08;92.82;99252.96;1765931;80;21017;-79
2022/09/08 02:13:27;;;;;;;7.85;5.20;;;;;;;15.11;93.03;99255.00;1768388;80;21504;-80
2022/09/08 02:16:09;;;;;;;8.05;4.60;;;;;;;15.15;93.47;99254.42;1775637;80;21058;-81
2022/09/08 02:18:36;;;;;;;9.68;5.87;;;;;;;15.17;93.99;99246.05;1775498;80;20986;-81
2022/09/08 02:21:08;;;;;;;13.15;5.90;;;;;;;15.18;93.80;99247.77;1784940;80;21049;-80
2022/09/08 02:23:40;;;;;;;11.48;6.33;;;;;;;15.20;93.30;99248.98;1760049;80;21517;-80
2022/09/08 02:26:17;;;;;;;9.70;6.03;;;;;;;15.16;93.38;99244.80;1773079;81;20999;-79
2022/09/08 02:28:44;;;;;;;9.08;5.45;;;;;;;15.11;93.36;99248.92;1781253;80;21464;-80
2022/09/08 02:31:10;;;;;;;9.83;5.92;;;;;;;15.04;93.22;99241.79;1771895;80;21069;-80
2022/09/08 02:33:37;;;;;;;10.65;6.00;;;;;;;15.00;92.54;99244.58;1771954;80;20982;-79
2022/09/08 02:36:04;;;;;;;11.25;6.37;;;;;;;14.97;93.28;99239.48;1761337;81;21535;-80
2022/09/08 02:38:31;;;;;;;10.28;5.97;;;;;;;14.94;94.24;99233.92;1759112;81;20974;-82
2022/09/08 02:40:59;;;;;;;9.05;5.12;;;;;;;14.95;93.13;99242.16;1771666;80;21015;-80
2022/09/08 02:43:26;;;;;;;9.45;5.35;;;;;;;14.94;92.88;99238.28;1755325;81;21042;-80
2022/09/08 02:45:53;;;;;;;12.93;5.92;;;;;;;14.90;93.02;99244.09;1763025;81;21026;-80
2022/09/08 02:48:19;;;;;;;9.48;5.53;;;;;;;14.87;93.59;99234.61;1761700;80;21007;-80
2022/09/08 02:50:46;;;;;;;9.88;6.05;;;;;;;14.86;93.16;99239.89;1784284;79;21626;-80
2022/09/08 02:53:13;;;;;;;15.13;5.53;;;;;;;14.81;94.61;99244.48;1771989;81;21006;-79
2022/09/08 02:55:41;;;;;;;9.50;5.10;;;;;;;14.81;93.11;99247.94;1772240;80;21460;-81
2022/09/08 02:58:09;;;;;;;10.38;5.62;;;;;;;14.81;93.28;99251.88;1772548;81;21034;-82
2022/09/08 03:00:38;;;;;;;9.30;6.05;;;;;;;14.83;94.01;99249.20;1756255;81;21022;-83
2022/09/08 03:03:06;;;;;;;7.95;5.00;;;;;;;14.87;94.29;99239.84;1773435;80;20983;-82
2022/09/08 03:05:34;;;;;;;9.15;5.70;;;;;;;14.91;94.44;99242.73;1774180;81;20971;-82
2022/09/08 03:08:03;;;;;;;11.33;5.75;;;;;;;14.98;94.86;99246.41;1771134;81;20976;-80
2022/09/08 03:10:32;;;;;;;9.18;5.42;;;;;;;15.02;94.82;99251.47;1739181;82;20938;-81
2022/09/08 03:13:00;;;;;;;14.43;7.15;;;;;;;14.99;93.71;99246.34;1773589;81;21488;-80
2022/09/08 03:15:29;;;;;;;12.40;6.78;;;;;;;14.97;94.27;99251.27;1772020;80;21002;-81
2022/09/08 03:17:56;;;;;;;12.55;6.58;;;;;;;15.00;94.23;99244.58;1773033;80;21022;-81
2022/09/08 03:20:23;;;;;;;11.68;6.42;;;;;;;15.00;93.79;99244.14;1754943;81;20995;-80
2022/09/08 03:22:51;;;;;;;11.80;5.95;;;;;;;15.00;93.84;99242.83;1768032;81;21049;-80
2022/09/08 03:25:18;;;;;;;9.88;5.53;;;;;;;15.01;93.51;99240.59;1760944;81;21015;-79
2022/09/08 03:27:45;;;;;;;7.45;4.67;;;;;;;15.00;93.38;99241.95;1761320;81;20999;-81
2022/09/08 03:30:15;;;;;;;10.13;5.53;;;;;;;14.97;93.62;99244.25;1761613;81;21035;-81
2022/09/08 03:32:42;;;;;;;13.25;6.58;;;;;;;14.97;93.75;99245.56;1761747;81;20987;-80
2022/09/08 03:35:12;;;;;;;14.35;6.10;;;;;;;15.00;94.09;99249.81;1738268;81;21519;-80
2022/09/08 03:37:39;;;;;;;9.65;5.67;;;;;;;15.00;92.92;99239.34;1773754;80;20996;-80
2022/09/08 03:40:11;;;;;;;17.48;6.78;;;;;;;14.97;93.50;99250.80;1790105;78;21030;-80
2022/09/08 03:42:40;;;;;;;13.55;5.92;;;;;;;15.00;93.85;99249.81;1793027;78;21055;-80
2022/09/08 03:45:11;;;;;;;12.03;6.12;;;;;;;15.01;93.40;99251.06;1792113;79;21250;-81
2022/09/08 03:47:38;;;;;;;10.75;5.70;;;;;;;15.01;93.49;99254.98;1786378;79;21537;-80
2022/09/08 03:50:06;;;;;;;12.73;6.42;;;;;;;15.01;92.64;99265.93;1790326;79;21011;-79
2022/09/08 03:52:33;;;;;;;9.53;5.62;;;;;;;15.00;92.94;99260.28;1791048;80;20948;-80
2022/09/08 03:54:59;;;;;;;13.18;6.12;;;;;;;14.98;93.47;99263.42;1788785;80;20992;-80
2022/09/08 03:57:29;;;;;;;13.25;6.40;;;;;;;14.96;92.97;99263.50;1789366;80;21003;-80
2022/09/08 03:59:58;;;;;;;14.38;6.20;;;;;;;14.90;92.73;99261.98;1789108;80;21267;-81
2022/09/08 04:02:26;;;;;;;12.23;6.12;;;;;;;14.85;93.03;99261.30;1756428;80;21142;-80
2022/09/08 04:04:56;;;;;;;11.57;5.85;;;;;;;14.85;93.79;99256.06;1789959;80;21034;-80
2022/09/08 04:07:27;;;;;;;10.78;5.78;;;;;;;14.85;93.37;99261.30;1791493;80;21106;-81
2022/09/08 04:09:56;;;;;;;11.60;5.97;;;;;;;14.83;93.43;99261.82;1787303;80;20958;-80
2022/09/08 04:12:25;;;;;;;10.45;5.70;;;;;;;14.82;93.52;99264.06;1764193;81;21501;-81
2022/09/08 04:14:52;;;;;;;13.00;5.67;;;;;;;14.81;94.11;99266.27;1761477;81;22136;-79
2022/09/08 04:17:21;;;;;;;11.95;6.10;;;;;;;14.83;94.44;99267.52;1761696;81;21054;-82
2022/09/08 04:19:50;;;;;;;10.00;5.37;;;;;;;14.83;93.93;99264.44;1761405;81;21484;-80
2022/09/08 04:22:18;;;;;;;11.45;5.78;;;;;;;14.79;94.16;99264.63;1761456;81;21094;-80
2022/09/08 04:24:45;;;;;;;12.20;5.97;;;;;;;14.81;94.23;99270.66;1761719;81;21001;-81
2022/09/08 04:27:13;;;;;;;11.65;5.67;;;;;;;14.79;94.03;99272.48;1761564;81;21554;-80
2022/09/08 04:29:40;;;;;;;10.13;5.60;;;;;;;14.77;94.35;99276.45;1761356;81;21022;-81
2022/09/08 04:32:07;;;;;;;10.50;5.28;;;;;;;14.72;95.33;99270.54;1761565;81;21502;-80
2022/09/08 04:34:35;;;;;;;11.90;5.67;;;;;;;14.74;94.08;99267.88;1792696;80;21005;-80
2022/09/08 04:37:04;;;;;;;11.75;5.53;;;;;;;14.67;94.46;99265.50;1751369;81;20990;-79
2022/09/08 04:39:31;;;;;;;8.73;5.20;;;;;;;14.67;93.85;99269.89;1767342;81;21058;-80
2022/09/08 04:41:58;;;;;;;14.10;5.58;;;;;;;14.69;93.69;99266.75;1763266;81;21002;-79
2022/09/08 04:44:25;;;;;;;12.20;5.92;;;;;;;14.65;94.31;99268.63;1778715;80;21012;-80
2022/09/08 04:46:52;;;;;;;9.60;5.25;;;;;;;14.68;95.00;99271.14;1741653;80;20998;-82
2022/09/08 04:49:19;;;;;;;10.75;5.47;;;;;;;14.74;94.43;99273.11;1784529;80;21593;-80
2022/09/08 04:51:45;;;;;;;12.03;5.75;;;;;;;14.76;94.71;99276.05;1778068;79;21050;-80
2022/09/08 04:54:12;;;;;;;10.75;4.87;;;;;;;14.80;94.41;99271.55;1766613;81;21022;-80
2022/09/08 04:56:39;;;;;;;8.98;4.95;;;;;;;14.83;93.90;99272.75;1764364;81;21007;-81
2022/09/08 04:59:05;;;;;;;9.10;5.00;;;;;;;14.85;94.16;99277.47;1765201;81;21011;-80
2022/09/08 05:01:35;;;;;;;9.43;5.15;;;;;;;14.83;94.13;99280.14;1765286;81;20963;-80
2022/09/08 05:04:03;;;;;;;8.28;5.12;;;;;;;14.80;93.46;99281.59;1763413;81;21054;-80
2022/09/08 05:06:33;;;;;;;8.68;5.05;;;;;;;14.80;94.13;99285.52;1763985;81;20948;-80
2022/09/08 05:09:01;;;;;;;11.90;4.35;;;;;;;14.83;94.24;99280.14;1763975;81;21550;-80
2022/09/08 05:11:30;;;;;;;13.20;4.72;;;;;;;14.86;94.09;99286.58;1750650;80;20942;-79
2022/09/08 05:13:58;;;;;;;8.33;4.53;;;;;;;14.85;93.51;99282.23;1767610;80;21148;-79
2022/09/08 05:16:28;;;;;;;9.43;4.35;;;;;;;14.86;93.72;99283.96;1790649;80;21064;-80
2022/09/08 05:18:59;;;;;;;6.55;4.25;;;;;;;14.91;93.29;99289.84;1757613;81;21015;-77
2022/09/08 05:21:27;;;;;;;7.20;4.20;;;;;;;14.91;93.29;99292.47;1778704;80;21016;-80
2022/09/08 05:23:56;;;;;;;10.35;5.20;;;;;;;14.86;93.40;99293.13;1772933;80;21000;-80
2022/09/08 05:26:24;;;;;;;6.67;3.87;;;;;;;14.87;93.54;99300.05;1791390;80;21039;-80
2022/09/08 05:28:52;;;;;;;8.05;4.40;;;;;;;14.86;92.76;99294.86;1754755;80;20979;-78
2022/09/08 05:31:23;;;;;;;7.47;4.50;;;;;;;14.87;93.10;99294.81;1749321;81;21041;-79
2022/09/08 05:33:51;;;;;;;8.43;4.72;;;;;;;14.88;92.99;99299.58;1741738;81;21015;-79
2022/09/08 05:36:21;;;;;;;8.08;5.08;;;;;;;14.88;93.02;99303.51;1750317;82;21513;-80
2022/09/08 05:38:49;;;;;;;10.23;4.85;;;;;;;14.83;93.19;99301.08;1744812;81;21002;-79
2022/09/08 05:41:16;;;;;;;9.18;4.62;;;;;;;14.82;92.69;99298.08;1757672;81;21553;-80
2022/09/08 05:43:44;;;;;;;8.55;5.12;;;;;;;14.80;92.79;99290.75;1772122;80;21000;-81
2022/09/08 05:46:11;;;;;;;13.43;5.70;;;;;;;14.76;93.19;99289.59;1761625;80;21006;-80
2022/09/08 05:48:38;;;;;;;11.78;6.62;;;;;;;14.82;93.00;99291.54;1757339;81;21087;-79
2022/09/08 05:51:10;;;;;;;17.92;6.95;;;;;;;14.85;92.78;99287.94;1754436;81;21084;-80
2022/09/08 05:53:37;;;;;;;16.30;7.95;;;;;;;14.83;92.03;99285.84;1754574;82;21087;-79
2022/09/08 05:56:07;;;;;;;16.62;8.00;;;;;;;14.75;92.51;99291.38;1757760;80;21045;-80
2022/09/08 05:58:35;;;;;;;17.42;8.48;;;;;;;14.79;93.18;99288.19;1758382;80;21006;-79
2022/09/08 06:01:10;;;;;;;20.45;7.97;;;;;;;14.87;93.37;99292.19;1763114;80;21045;-79
2022/09/08 06:03:37;;;;;;;19.77;6.95;;;;;;;14.98;93.57;99290.91;1769746;80;21025;-79
2022/09/08 06:06:08;;;;;;;14.75;6.40;;;;;;;15.09;93.21;99292.18;1768932;80;21023;-80
2022/09/08 06:08:37;;;;;;;17.98;6.80;;;;;;;15.11;92.98;99289.05;1725571;83;20967;-79
2022/09/08 06:11:04;;;;;;;13.15;6.05;;;;;;;15.18;92.97;99288.36;1756156;80;21019;-79
2022/09/08 06:13:32;;;;;;;13.48;5.95;;;;;;;15.29;93.24;99289.22;1758641;80;21044;-80
2022/09/08 06:16:06;;;;;;;9.68;4.62;;;;;;;15.38;93.13;99287.53;1755113;80;21086;-80
2022/09/08 06:18:35;;;;;;;8.15;4.70;;;;;;;15.51;93.06;99287.86;1762194;80;21028;-80
2022/09/08 06:21:15;;;;;;;7.10;4.70;;;;;;;15.58;92.68;99294.55;1764858;80;21045;-79
2022/09/08 06:23:42;;;;;;;8.23;4.60;;;;;;;15.62;92.55;99291.35;1727616;83;20973;-78
2022/09/08 06:26:17;;;;;;;10.90;4.58;;;;;;;15.71;92.45;99291.78;1758610;80;21038;-79
2022/09/08 06:28:54;;;;;;;9.68;5.33;;;;;;;15.80;92.30;99291.05;1746570;81;21038;-79
2022/09/08 06:31:39;;;;;;;9.15;4.67;;;;;;;15.87;91.70;99298.55;1736560;82;21029;-80
2022/09/08 06:34:14;;;;;;;9.48;5.40;;;;;;;15.90;91.32;99292.34;1741574;82;21675;-80
2022/09/08 06:36:53;;;;;;;9.58;5.65;;;;;;;15.83;91.13;99292.21;1741359;82;21033;-81
2022/09/08 06:39:27;;;;;;;10.80;5.30;;;;;;;15.87;91.40;99302.95;1735383;81;21067;-80
2022/09/08 06:42:00;;;;;;;7.95;5.17;;;;;;;15.93;91.31;99294.81;1746822;81;21018;-80
2022/09/08 06:44:32;;;;;;;10.13;4.72;;;;;;;16.00;90.98;99296.73;1712019;83;21429;-82
2022/09/08 06:46:59;;;;;;;25.97;12.58;;;;;;;16.00;90.35;99300.66;1768865;80;20994;-80
2022/09/08 06:49:28;;;;;;;9.63;5.25;;;;;;;16.02;91.05;99298.83;1775835;79;21179;-79
2022/09/08 06:52:32;;;;;;;8.48;4.80;;;;;;;16.10;91.17;99304.58;1764221;80;21093;-80
2022/09/08 06:55:22;;;;;;;10.60;5.20;;;;;;;16.16;90.65;99306.92;1770698;80;20947;-80
2022/09/08 06:58:09;;;;;;;8.83;4.67;;;;;;;16.34;90.82;99308.34;1723097;82;21030;-81
2022/09/08 07:00:48;;;;;;;9.03;4.67;;;;;;;16.34;89.67;99302.63;1730207;82;21022;-81
2022/09/08 07:03:34;;;;;;;12.60;5.12;;;;;;;16.42;89.93;99303.12;1741202;81;21038;-81
2022/09/08 07:06:09;;;;;;;8.23;4.87;;;;;;;16.43;89.60;99302.66;1753520;81;20999;-81
2022/09/08 07:09:05;;;;;;;8.68;5.10;;;;;;;16.35;89.65;99297.75;1752493;81;21002;-81
2022/09/08 07:12:13;;;;;;;8.38;4.42;;;;;;;16.29;89.56;99301.97;1756385;80;20988;-81
2022/09/08 07:14:51;;;;;;;12.47;5.05;;;;;;;16.32;90.12;99296.59;1749555;81;21118;-80
2022/09/08 07:17:35;;;;;;;7.97;4.83;;;;;;;16.49;89.94;99292.75;1741291;81;21036;-80
2022/09/08 07:20:05;;;;;;;8.65;4.87;;;;;;;16.57;89.56;99293.67;1752604;81;20953;-80
2022/09/08 07:22:51;;;;;;;8.85;5.10;;;;;;;16.55;89.03;99296.83;1753370;81;20940;-80
2022/09/08 07:25:35;;;;;;;8.28;5.40;;;;;;;16.65;89.04;99302.51;1740166;81;21058;-80
2022/09/08 07:28:12;;;;;;;10.93;5.53;;;;;;;16.68;87.83;99297.97;1760700;81;21509;-81
2022/09/08 07:30:40;;;;;;;10.93;6.70;;;;;;;16.73;87.43;99302.99;1778671;79;21014;-80
2022/09/08 07:33:31;;;;;;;11.65;6.40;;;;;;;16.72;88.38;99301.31;1758859;81;21567;-81
2022/09/08 07:36:26;;;;;;;7.92;5.30;;;;;;;16.83;88.24;99296.45;1759457;81;21051;-79
2022/09/08 07:38:55;;;;;;;7.12;4.25;;;;;;;16.91;87.55;99301.34;1718812;81;20967;-83
2022/09/08 07:41:50;;;;;;;10.82;5.95;;;;;;;16.99;86.96;99303.12;1789321;79;20986;-79
2022/09/08 07:44:18;;;;;;;8.13;4.97;;;;;;;17.02;86.58;99301.65;1754464;81;21554;-79
2022/09/08 07:46:56;;;;;;;10.32;5.05;;;;;;;16.99;87.36;99306.19;1766306;80;20998;-80
2022/09/08 07:49:57;;;;;;;7.95;4.65;;;;;;;17.14;87.90;99301.52;1762038;81;20989;-80
2022/09/08 07:52:50;;;;;;;10.35;5.65;;;;;;;17.30;87.01;99306.87;1745472;81;21031;-79
2022/09/08 07:55:34;;;;;;;10.88;4.97;;;;;;;17.43;86.51;99303.19;1770336;80;20998;-80
2022/09/08 07:58:15;;;;;;;7.08;4.58;;;;;;;17.59;87.19;99300.17;1766697;80;20995;-80
2022/09/08 08:01:08;;;;;;;9.33;4.85;;;;;;;17.75;87.13;99302.03;1752247;80;21006;-80
2022/09/08 08:03:52;;;;;;;12.30;6.00;;;;;;;17.98;86.09;99308.73;1759361;80;21113;-79
2022/09/08 08:06:49;;;;;;;9.60;5.67;;;;;;;17.91;83.72;99310.85;1747809;80;21077;-80
2022/09/08 08:09:51;;;;;;;9.23;5.95;;;;;;;18.06;84.71;99307.43;1767252;80;21030;-80
2022/09/08 08:12:43;;;;;;;10.03;5.40;;;;;;;18.09;83.52;99311.20;1731268;82;21018;-80
2022/09/08 08:15:23;;;;;;;13.72;5.65;;;;;;;18.16;82.89;99311.71;1789960;80;21003;-81
2022/09/08 08:18:22;;;;;;;8.70;5.75;;;;;;;18.33;83.67;99306.05;1753279;81;21074;-80
2022/09/08 08:21:13;;;;;;;9.25;5.58;;;;;;;18.55;83.22;99306.57;1754863;81;20987;-79
2022/09/08 08:23:48;;;;;;;9.13;5.47;;;;;;;18.77;81.89;99303.60;1749882;81;21301;-80
2022/09/08 08:26:47;;;;;;;10.28;5.33;;;;;;;18.83;82.26;99305.08;1760808;81;21023;-79
2022/09/08 08:29:34;;;;;;;7.67;4.62;;;;;;;19.05;82.41;99299.45;1752702;81;21090;-83
2022/09/08 08:32:42;;;;;;;10.28;5.05;;;;;;;19.26;82.02;99304.82;1758343;81;21030;-79
2022/09/08 08:35:29;;;;;;;14.90;5.85;;;;;;;19.37;79.95;99300.23;1702606;83;21124;-79
2022/09/08 08:37:56;;;;;;;8.03;5.70;;;;;;;19.37;79.92;99306.83;1635222;83;21586;-80
2022/09/08 08:40:37;;;;;;;9.68;6.28;;;;;;;19.45;80.04;99295.84;1724433;82;21038;-79
2022/09/08 08:43:26;;;;;;;9.48;6.45;;;;;;;19.30;79.14;99298.03;1729222;82;21584;-79
2022/09/08 08:46:10;;;;;;;9.88;6.65;;;;;;;19.30;79.48;99291.45;1730505;82;21574;-79
2022/09/08 08:49:09;;;;;;;11.00;6.47;;;;;;;19.33;79.00;99292.60;1729596;82;20976;-79
2022/09/08 08:51:50;;;;;;;15.45;6.75;;;;;;;19.38;78.15;99280.02;1730572;82;20963;-80
2022/09/08 08:54:44;;;;;;;13.35;6.25;;;;;;;19.22;78.46;99274.31;1692004;82;21037;-80
2022/09/08 08:57:48;;;;;;;12.23;7.00;;;;;;;19.04;78.17;99274.90;1701753;83;21084;-80
2022/09/08 09:00:18;;;;;;;;;;;;;;;18.94;78.81;99266.27;1724445;82;21022;-79
2022/09/08 09:03:16;;;;;;;12.75;6.97;;;;;;;18.91;78.10;99263.35;1719526;82;20140;-80
2022/09/08 09:05:53;;;;;;;10.25;6.30;;;;;;;18.78;78.69;99254.41;1679941;84;21072;-80
2022/09/08 09:08:28;;;;;;;11.95;6.85;;;;;;;18.77;79.82;99246.98;1715456;83;21066;-80
2022/09/08 09:11:21;;;;;;;14.93;7.53;;;;;;;18.82;79.66;99247.61;1723498;82;21046;-80
2022/09/08 09:13:53;;;;;;;9.95;6.45;;;;;;;18.80;79.58;99245.98;1725723;82;21003;-84
2022/09/08 09:17:10;;;;;;;12.93;7.15;;;;;;;18.81;79.92;99243.27;1730957;82;21031;-79
2022/09/08 09:19:49;;;;;;;12.47;7.40;;;;;;;18.85;80.11;99245.27;1730646;82;21020;-82
2022/09/08 09:22:53;;;;;;;15.30;7.65;;;;;;;18.92;79.72;99241.80;1728095;81;20975;-81
2022/09/08 09:25:38;;;;;;;;;;;;;;;18.93;79.58;99234.30;1735029;79;21074;-84
2022/09/08 09:28:29;;;;;;;12.93;7.50;;;;;;;19.01;79.51;99229.43;1718637;82;20104;-82
2022/09/08 09:31:31;;;;;;;16.32;8.65;;;;;;;19.04;79.10;99220.89;1730492;82;21022;-80
2022/09/08 09:34:37;;;;;;;12.63;7.72;;;;;;;19.11;78.77;99218.73;1734976;82;21552;-81
2022/09/08 09:37:36;;;;;;;12.60;7.60;;;;;;;19.20;78.25;99215.57;1678899;84;21038;-80
2022/09/08 09:40:09;;;;;;;15.10;8.65;;;;;;;19.30;77.95;99208.42;1704383;84;20984;-80
2022/09/08 09:43:03;;;;;;;14.70;8.78;;;;;;;19.40;77.55;99201.69;1704607;84;20961;-79
2022/09/08 09:45:38;;;;;;;11.25;6.40;;;;;;;19.55;77.86;99203.38;1705959;84;21022;-79
2022/09/08 09:48:19;;;;;;;15.23;7.03;;;;;;;19.68;77.52;99201.70;1706553;83;21028;-80
2022/09/08 09:51:13;;;;;;;14.55;7.55;;;;;;;19.81;77.39;99198.34;1694347;84;21008;-79
2022/09/08 09:54:10;;;;;;;13.95;6.33;;;;;;;19.94;76.65;99204.56;1692180;84;21003;-80
2022/09/08 09:57:25;;;;;;;14.90;7.78;;;;;;;19.93;75.12;99200.70;1703805;83;21604;-80
2022/09/08 10:00:20;;;;;;;16.57;7.80;;;;;;;20.06;75.54;99202.95;1701799;84;21032;-79
2022/09/08 10:03:21;;;;;;;17.05;7.65;;;;;;;20.22;75.83;99199.72;1705200;82;21480;-78
2022/09/08 10:06:05;;;;;;;16.45;7.97;;;;;;;20.35;74.20;99194.98;1703265;84;21004;-80
2022/09/08 10:09:15;;;;;;;14.90;7.95;;;;;;;20.47;74.31;99184.94;1701327;84;21023;-79
2022/09/08 10:12:15;;;;;;;12.13;6.95;;;;;;;20.62;73.61;99189.27;1707153;82;21031;-80
2022/09/08 10:15:34;;;;;;;10.95;6.90;;;;;;;20.76;73.70;99171.68;1706692;84;20964;-78
2022/09/08 10:18:35;;;;;;;12.50;7.92;;;;;;;20.90;72.54;99173.41;1706213;83;20992;-79
2022/09/08 10:21:22;;;;;;;12.98;6.12;;;;;;;21.06;73.15;99172.75;1698630;82;20979;-79
2022/09/08 10:24:16;;;;;;;11.38;7.05;;;;;;;21.16;73.38;99173.81;1700365;82;21074;-79
2022/09/08 10:26:57;;;;;;;12.90;7.12;;;;;;;21.32;72.88;99167.02;1673282;85;21317;-78
2022/09/08 10:30:13;;;;;;;11.78;6.78;;;;;;;21.50;73.05;99170.23;1673029;82;21039;-78
2022/09/08 10:32:57;;;;;;;12.03;6.55;;;;;;;21.73;73.41;99158.54;1722584;82;21037;-79
2022/09/08 10:35:40;;;;;;;9.70;5.80;;;;;;;21.96;72.06;99161.70;1724657;82;21055;-79
2022/09/08 10:38:48;;;;;;;10.82;6.87;;;;;;;22.09;70.31;99152.91;1723182;82;21014;-79
2022/09/08 10:41:40;;;;;;;11.15;6.33;;;;;;;22.17;69.90;99151.39;1725737;81;21003;-82
2022/09/08 10:44:49;;;;;;;11.97;6.50;;;;;;;22.32;67.54;99153.45;1728665;82;21019;-79
2022/09/08 10:47:50;;;;;;;8.78;6.08;;;;;;;22.44;68.75;99141.95;1719425;82;21043;-79
2022/09/08 10:50:29;;;;;;;13.35;6.67;;;;;;;22.54;68.77;99134.18;1726072;82;21482;-80
2022/09/08 10:53:46;;;;;;;10.70;6.30;;;;;;;22.68;67.51;99138.45;1673826;85;21086;-78
2022/09/08 10:56:26;;;;;;;10.23;5.95;;;;;;;22.79;65.83;99141.13;1727569;81;21039;-79
2022/09/08 10:59:37;;;;;;;9.88;5.90;;;;;;;22.97;67.06;99136.73;1720794;81;21110;-79
2022/09/08 11:02:23;;;;;;;11.25;5.97;;;;;;;23.17;66.15;99124.15;1723188;81;21438;-79
2022/09/08 11:05:21;;;;;;;11.88;5.80;;;;;;;23.36;64.65;99117.45;1724166;81;21019;-79
2022/09/08 11:08:28;;;;;;;9.58;5.90;;;;;;;23.57;64.09;99115.73;1723527;81;21002;-78
2022/09/08 11:11:21;;;;;;;8.35;5.70;;;;;;;23.66;61.39;99116.01;1718489;82;21058;-79
2022/09/08 11:13:59;;;;;;;8.63;5.83;;;;;;;23.91;64.20;99118.41;1723398;81;21051;-79
2022/09/08 11:16:57;;;;;;;10.40;6.53;;;;;;;24.13;63.88;99114.03;1713344;81;21015;-80
2022/09/08 11:19:46;;;;;;;8.15;5.22;;;;;;;24.30;62.05;99109.52;1720338;81;22374;-80
2022/09/08 11:22:50;;;;;;;10.35;5.78;;;;;;;24.55;61.77;99102.20;1725697;81;21008;-79
2022/09/08 11:25:28;;;;;;;9.75;6.97;;;;;;;24.72;58.19;99100.81;1726356;82;21082;-79
2022/09/08 11:28:12;;;;;;;9.28;4.97;;;;;;;24.99;61.56;99094.99;1697193;83;21100;-78
2022/09/08 11:31:08;;;;;;;7.60;4.65;;;;;;;25.24;59.62;99099.56;1712731;82;21528;-79
2022/09/08 11:33:42;;;;;;;7.92;5.08;;;;;;;25.49;58.92;99096.97;1691317;83;21086;-79
2022/09/08 11:36:29;;;;;;;8.25;4.95;;;;;;;25.74;58.64;99091.15;1690733;83;21043;-79
2022/09/08 11:39:13;;;;;;;9.13;5.17;;;;;;;25.97;54.96;99081.16;1693403;84;21043;-79
2022/09/08 11:41:57;;;;;;;14.98;5.42;;;;;;;26.34;56.39;99080.52;1663517;85;20997;-80
2022/09/08 11:44:35;;;;;;;7.87;5.00;;;;;;;26.63;56.22;99079.70;1669323;84;21035;-79
2022/09/08 11:47:39;;;;;;;7.80;5.47;;;;;;;26.81;57.09;99082.98;1686262;84;21091;-79
2022/09/08 11:50:35;;;;;;;7.62;4.85;;;;;;;27.19;57.11;99073.54;1675781;84;21070;-80
2022/09/08 11:53:19;;;;;;;8.15;5.08;;;;;;;27.66;56.19;99076.70;1675485;84;21042;-80
2022/09/08 11:56:26;;;;;;;12.37;5.33;;;;;;;27.98;54.25;99075.94;1706586;83;20992;-80
2022/09/08 11:59:25;;;;;;;8.48;5.03;;;;;;;28.46;53.93;99074.73;1650917;85;21461;-79
2022/09/08 12:02:29;;;;;;;8.15;4.70;;;;;;;28.89;55.32;99073.94;1686372;84;21055;-80
2022/09/08 12:05:07;;;;;;;6.90;4.72;;;;;;;29.20;49.63;99073.48;1678524;84;21046;-80
2022/09/08 12:07:54;;;;;;;7.45;4.78;;;;;;;29.57;51.14;99070.17;1670679;85;21019;-80
2022/09/08 12:10:56;;;;;;;7.33;4.72;;;;;;;29.67;50.21;99072.22;1696667;83;21011;-81
2022/09/08 12:13:28;;;;;;;;;;;;;;;29.89;48.78;99075.67;1707169;84;21020;-80
2022/09/08 12:16:03;;;;;;;6.45;3.80;;;;;;;30.20;46.51;99076.42;1697652;84;20204;-80
2022/09/08 12:18:59;;;;;;;6.72;4.35;;;;;;;30.48;46.46;99066.73;1658435;85;21032;-80
2022/09/08 12:22:09;;;;;;;7.28;4.25;;;;;;;30.84;47.87;99071.75;1693497;83;20987;-79
2022/09/08 12:24:50;;;;;;;7.37;3.52;;;;;;;30.97;44.45;99071.28;1674247;85;21019;-80
2022/09/08 12:27:40;;;;;;;8.30;4.12;;;;;;;31.21;44.13;99070.39;1696557;83;21011;-80